Time;durP1;ratioP1;P1;durP2;ratioP2;P2;SDS_P1;SDS_P2;PMS_P1;PMS_P2;Temp;Humidity;BMP_temperature;BMP_pressure;BME280_temperature;BME280_humidity;BME280_pressure;Samples;Min_cycle;Max_cycle;Signal;HPM_P1;HPM_P2
2022/11/02 00:01:44;;;;;;;64.40;37.50;;;;;;;11.50;100.00;100876.27;1362314;93;21628;-89
2022/11/02 00:04:14;;;;;;;64.70;35.83;;;;;;;11.52;100.00;100876.48;1432047;95;21575;-84
2022/11/02 00:06:40;;;;;;;59.73;34.97;;;;;;;11.51;100.00;100877.97;1361083;93;21608;-85
2022/11/02 00:09:07;;;;;;;60.83;35.30;;;;;;;11.49;100.00;100869.31;1369401;94;21487;-83
2022/11/02 00:11:33;;;;;;;64.80;34.87;;;;;;;11.49;100.00;100875.94;1367589;95;22164;-85
2022/11/02 00:14:06;;;;;;;59.60;35.23;;;;;;;11.47;100.00;100867.28;1378792;93;21832;-84
2022/11/02 00:16:41;;;;;;;67.20;36.10;;;;;;;11.51;100.00;100873.98;1374849;93;22434;-84
2022/11/02 00:19:10;;;;;;;54.17;30.70;;;;;;;11.52;100.00;100876.98;1369908;93;21963;-86
2022/11/02 00:21:40;;;;;;;53.40;31.87;;;;;;;11.57;100.00;100863.30;1374485;93;22886;-85
2022/11/02 00:24:18;;;;;;;55.43;32.80;;;;;;;11.59;100.00;100863.48;1384716;89;21431;-81
2022/11/02 00:26:44;;;;;;;70.70;34.10;;;;;;;11.58;100.00;100871.59;1541677;89;22106;-85
2022/11/02 00:29:15;;;;;;;61.37;35.03;;;;;;;11.52;100.00;100871.67;1531786;89;21321;-85
2022/11/02 00:31:41;;;;;;;59.97;29.73;;;;;;;11.50;100.00;100869.16;1384438;89;21476;-83
2022/11/02 00:34:07;;;;;;;49.20;27.40;;;;;;;11.50;100.00;100865.67;1395793;89;21970;-83
2022/11/02 00:36:36;;;;;;;47.37;25.27;;;;;;;11.51;100.00;100870.02;1434090;88;21424;-83
2022/11/02 00:39:02;;;;;;;47.50;28.20;;;;;;;11.50;100.00;100873.63;1424093;89;21542;-86
2022/11/02 00:41:30;;;;;;;44.83;26.90;;;;;;;11.54;100.00;100871.05;1437411;89;21461;-85
2022/11/02 00:43:56;;;;;;;52.13;28.30;;;;;;;11.53;100.00;100878.64;1427026;89;21854;-82
2022/11/02 00:46:22;;;;;;;42.93;26.10;;;;;;;11.49;100.00;100878.59;1420801;90;22420;-84
2022/11/02 00:48:54;;;;;;;57.93;28.67;;;;;;;11.45;100.00;100875.39;1440571;88;21379;-82
2022/11/02 00:51:22;;;;;;;44.07;24.87;;;;;;;11.44;100.00;100875.52;1467524;88;21520;-83
2022/11/02 00:53:59;;;;;;;42.27;22.80;;;;;;;11.42;100.00;100882.77;1462821;86;21416;-85
2022/11/02 00:56:28;;;;;;;38.00;21.90;;;;;;;11.40;100.00;100884.75;1468123;88;22236;-86
2022/11/02 00:59:10;;;;;;;34.00;21.10;;;;;;;11.43;100.00;100877.84;1460499;87;22391;-84
2022/11/02 01:01:31;;;;;;;45.93;22.57;;;;;;;11.44;100.00;100876.84;1462400;87;21616;-84
2022/11/02 01:03:58;;;;;;;38.87;22.30;;;;;;;11.47;100.00;100871.26;1465589;87;22486;-86
2022/11/02 01:06:33;;;;;;;39.53;20.80;;;;;;;11.45;100.00;100860.81;1470284;87;21483;-85
2022/11/02 01:09:03;;;;;;;40.10;20.73;;;;;;;11.43;100.00;100856.63;1473250;87;21424;-84
2022/11/02 01:11:35;;;;;;;33.47;20.53;;;;;;;11.42;100.00;100857.59;1462739;87;21803;-83
2022/11/02 01:14:15;;;;;;;41.35;21.65;;;;;;;11.43;100.00;100857.96;1416132;87;22251;-83
2022/11/02 01:16:44;;;;;;;35.27;19.40;;;;;;;11.46;100.00;100862.48;1387177;88;21417;-84
2022/11/02 01:19:17;;;;;;;35.93;18.27;;;;;;;11.46;100.00;100869.59;1374455;89;21500;-83
2022/11/02 01:21:43;;;;;;;37.83;21.03;;;;;;;11.42;100.00;100866.41;1531160;89;21365;-85
2022/11/02 01:24:15;;;;;;;30.83;18.83;;;;;;;11.44;100.00;100871.05;1431638;89;22041;-82
2022/11/02 01:26:51;;;;;;;35.50;20.07;;;;;;;11.47;100.00;100874.73;1451384;89;22347;-86
2022/11/02 01:29:30;;;;;;;30.73;16.97;;;;;;;11.51;100.00;100876.64;1534980;88;21440;-85
2022/11/02 01:32:00;;;;;;;31.33;18.65;;;;;;;11.49;100.00;100878.59;1372101;90;21454;-85
2022/11/02 01:34:34;;;;;;;31.33;17.67;;;;;;;11.45;100.00;100883.34;1378769;88;21425;-86
2022/11/02 01:37:07;;;;;;;32.33;16.63;;;;;;;11.39;100.00;100877.26;1390008;90;21342;-86
2022/11/02 01:39:36;;;;;;;34.30;17.63;;;;;;;11.37;100.00;100881.06;1410780;90;22019;-85
2022/11/02 01:42:24;;;;;;;39.50;19.00;;;;;;;11.35;100.00;100877.70;1538198;89;21196;-84
2022/11/02 01:44:50;;;;;;;35.40;17.97;;;;;;;11.34;100.00;100872.07;1374451;90;21351;-85
2022/11/02 01:47:31;;;;;;;35.40;18.93;;;;;;;11.32;100.00;100868.72;1562096;87;21395;-84
2022/11/02 01:50:14;;;;;;;34.35;18.00;;;;;;;11.33;100.00;100866.41;1477681;88;21622;-87
2022/11/02 01:52:41;;;;;;;39.70;18.80;;;;;;;11.35;100.00;100858.66;1483720;87;21594;-83
2022/11/02 01:55:15;;;;;;;37.30;18.97;;;;;;;11.36;100.00;100860.32;1476180;88;21863;-85
2022/11/02 01:57:46;;;;;;;26.30;17.60;;;;;;;11.32;100.00;100854.14;1482095;88;21474;-84
2022/11/02 02:00:14;;;;;;;;;;;;;;;11.29;100.00;100850.78;1462493;89;21528;-84
2022/11/02 02:02:46;;;;;;;28.17;16.77;;;;;;;11.28;100.00;100854.92;1383079;89;20281;-87
2022/11/02 02:05:14;;;;;;;26.70;15.67;;;;;;;11.27;100.00;100860.68;1395121;89;22466;-87
2022/11/02 02:07:41;;;;;;;26.57;16.47;;;;;;;11.27;100.00;100853.23;1417219;89;21490;-85
2022/11/02 02:10:08;;;;;;;27.40;15.87;;;;;;;11.27;100.00;100854.55;1458517;89;22486;-84
2022/11/02 02:12:37;;;;;;;25.20;14.67;;;;;;;11.24;100.00;100858.31;1462043;89;21637;-83
2022/11/02 02:15:03;;;;;;;26.83;16.30;;;;;;;11.22;100.00;100868.70;1460242;89;21536;-85
2022/11/02 02:17:47;;;;;;;26.20;14.40;;;;;;;11.22;100.00;100875.33;1442072;89;22414;-86
2022/11/02 02:20:26;;;;;;;26.00;15.10;;;;;;;11.19;100.00;100876.48;1444647;89;21379;-86
2022/11/02 02:23:27;;;;;;;31.63;15.30;;;;;;;11.16;100.00;100880.70;1501107;89;21365;-86
2022/11/02 02:26:11;;;;;;;24.63;13.03;;;;;;;11.16;100.00;100868.78;1529897;89;21355;-85
2022/11/02 02:29:05;;;;;;;24.10;14.37;;;;;;;11.16;100.00;100871.43;1449573;89;21598;-82
2022/11/02 02:32:06;;;;;;;23.50;13.00;;;;;;;11.16;100.00;100872.75;1453370;89;21660;-83
2022/11/02 02:34:40;;;;;;;32.03;15.00;;;;;;;11.20;100.00;100878.14;1449197;89;21500;-80
2022/11/02 02:37:11;;;;;;;22.67;13.57;;;;;;;11.22;100.00;100868.24;1455909;89;21631;-84
2022/11/02 02:39:58;;;;;;;25.97;13.27;;;;;;;11.22;100.00;100858.97;1454819;89;21490;-84
2022/11/02 02:42:55;;;;;;;23.20;12.47;;;;;;;11.19;100.00;100864.55;1454722;89;21407;-87
2022/11/02 02:45:38;;;;;;;20.77;12.03;;;;;;;11.17;100.00;100878.42;1450612;89;21455;-85
2022/11/02 02:48:21;;;;;;;17.83;12.33;;;;;;;11.19;100.00;100887.07;1458275;89;21527;-84
2022/11/02 02:51:01;;;;;;;18.90;12.10;;;;;;;11.20;100.00;100887.41;1445619;89;22571;-86
2022/11/02 02:53:41;;;;;;;31.62;14.65;;;;;;;11.19;100.00;100876.48;1449288;89;21408;-85
2022/11/02 02:56:09;;;;;;;18.47;11.70;;;;;;;11.20;100.00;100872.01;1457192;89;22393;-87
2022/11/02 02:58:50;;;;;;;26.00;12.97;;;;;;;11.18;100.00;100870.81;1460028;89;21580;-86
2022/11/02 03:01:17;;;;;;;19.98;12.43;;;;;;;11.18;100.00;100874.78;1368533;91;22190;-83
2022/11/02 03:03:44;;;;;;;19.27;11.43;;;;;;;11.19;100.00;100875.15;1367184;89;21256;-85
2022/11/02 03:06:24;;;;;;;21.40;11.20;;;;;;;11.17;100.00;100886.37;1367652;90;21262;-86
2022/11/02 03:09:07;;;;;;;19.83;12.47;;;;;;;11.18;100.00;100885.88;1476392;89;21656;-88
2022/11/02 03:11:56;;;;;;;16.63;11.73;;;;;;;11.22;100.00;100884.14;1453266;89;21431;-88
2022/11/02 03:14:34;;;;;;;16.67;12.13;;;;;;;11.24;100.00;100895.41;1459492;89;22361;-85
2022/11/02 03:17:20;;;;;;;18.07;11.23;;;;;;;11.26;100.00;100900.09;1459458;89;21614;-86
2022/11/02 03:20:30;;;;;;;17.83;11.43;;;;;;;11.21;100.00;100904.97;1453077;89;22347;-85
2022/11/02 03:23:10;;;;;;;19.13;10.60;;;;;;;11.17;100.00;100894.31;1465083;88;22031;-84
2022/11/02 03:26:00;;;;;;;18.42;12.10;;;;;;;11.14;100.00;100905.19;1481193;88;22638;-82
2022/11/02 03:28:59;;;;;;;16.77;10.90;;;;;;;11.11;100.00;100913.92;1479664;88;21476;-84
2022/11/02 03:31:39;;;;;;;18.03;11.40;;;;;;;11.12;100.00;100920.38;1449690;87;21409;-84
2022/11/02 03:34:40;;;;;;;15.50;11.00;;;;;;;11.11;100.00;100920.05;1457018;89;21593;-84
2022/11/02 03:37:40;;;;;;;19.15;11.08;;;;;;;11.07;100.00;100917.30;1459663;89;21475;-82
2022/11/02 03:40:21;;;;;;;19.00;11.38;;;;;;;11.00;100.00;100916.20;1441182;90;21777;-85
2022/11/02 03:42:48;;;;;;;;;;;;;;;11.00;100.00;100912.23;1444756;89;21373;-84
2022/11/02 03:45:21;;;;;;;22.53;13.20;;;;;;;10.93;100.00;100913.73;1460966;89;20319;-82
2022/11/02 03:47:53;;;;;;;31.40;13.40;;;;;;;10.88;100.00;100909.37;1457988;89;22163;-81
2022/11/02 03:50:22;;;;;;;20.30;12.03;;;;;;;10.86;100.00;100907.34;1456325;89;21394;-83
2022/11/02 03:52:57;;;;;;;20.70;11.83;;;;;;;10.86;100.00;100898.07;1440525;89;21395;-83
2022/11/02 03:55:29;;;;;;;17.87;10.17;;;;;;;10.86;100.00;100899.39;1445934;89;21358;-83
2022/11/02 03:57:56;;;;;;;18.50;11.53;;;;;;;10.88;100.00;100897.45;1457138;89;21438;-84
2022/11/02 04:00:24;;;;;;;17.07;10.77;;;;;;;10.93;100.00;100900.50;1459599;89;21373;-85
2022/11/02 04:02:59;;;;;;;26.27;12.20;;;;;;;10.96;100.00;100895.78;1445553;89;21543;-83
2022/11/02 04:05:34;;;;;;;18.10;11.30;;;;;;;11.01;100.00;100896.67;1519757;90;21219;-84
2022/11/02 04:16:16;;;;;;;30.27;13.87;;;;;;;11.11;100.00;100909.45;1512504;90;22043;-80
2022/11/02 04:21:27;;;;;;;22.03;12.60;;;;;;;11.13;100.00;100904.83;1455620;89;22039;-84
2022/11/02 04:26:38;;;;;;;19.10;11.90;;;;;;;11.15;100.00;100894.10;1458105;89;21328;-80
2022/11/02 04:29:04;;;;;;;21.90;12.53;;;;;;;11.19;100.00;100904.76;1463082;89;22194;-80
2022/11/02 04:31:30;;;;;;;20.30;11.43;;;;;;;11.19;100.00;100903.43;1458119;89;21365;-81
2022/11/02 04:34:00;;;;;;;20.83;13.83;;;;;;;11.19;100.00;100901.64;1475596;87;21402;-81
2022/11/02 04:36:29;;;;;;;22.83;12.77;;;;;;;11.18;100.00;100902.60;1448531;89;21462;-82
2022/11/02 04:38:55;;;;;;;18.00;11.10;;;;;;;11.18;100.00;100905.25;1449222;89;21477;-81
2022/11/02 04:41:41;;;;;;;25.10;12.10;;;;;;;11.19;100.00;100900.78;1441056;89;21351;-81
2022/11/02 04:44:16;;;;;;;19.17;10.90;;;;;;;11.21;100.00;100898.34;1455923;89;22447;-81
2022/11/02 04:46:42;;;;;;;16.47;11.83;;;;;;;11.25;100.00;100904.22;1457070;89;22444;-82
2022/11/02 04:49:09;;;;;;;20.07;12.03;;;;;;;11.23;100.00;100907.00;1451843;89;22058;-83
2022/11/02 04:51:36;;;;;;;24.27;12.90;;;;;;;11.18;100.00;100915.84;1381064;89;21240;-84
2022/11/02 04:54:02;;;;;;;20.07;11.73;;;;;;;11.16;100.00;100900.56;1384896;89;21225;-85
2022/11/02 04:56:29;;;;;;;26.47;14.07;;;;;;;11.14;100.00;100910.49;1369303;89;21255;-84
2022/11/02 04:58:58;;;;;;;23.37;13.93;;;;;;;11.13;100.00;100918.07;1437036;89;21350;-83
2022/11/02 05:01:27;;;;;;;30.90;14.27;;;;;;;11.15;100.00;100922.75;1450745;89;21336;-83
2022/11/02 05:03:55;;;;;;;21.17;12.67;;;;;;;11.15;100.00;100919.27;1542553;89;21345;-82
2022/11/02 05:06:22;;;;;;;24.87;14.27;;;;;;;11.20;100.00;100926.32;1504078;89;21402;-81
2022/11/02 05:08:49;;;;;;;28.30;12.73;;;;;;;11.25;100.00;100924.09;1364875;90;21263;-82
2022/11/02 05:11:15;;;;;;;23.10;12.83;;;;;;;11.27;100.00;100922.13;1519730;89;21365;-82
2022/11/02 05:13:43;;;;;;;19.70;12.10;;;;;;;11.24;100.00;100923.73;1383718;89;21211;-80
2022/11/02 05:16:12;;;;;;;22.23;12.43;;;;;;;11.21;100.00;100922.19;1398868;89;21233;-80
2022/11/02 05:18:38;;;;;;;20.80;13.27;;;;;;;11.21;100.00;100923.52;1387474;88;21277;-85
2022/11/02 05:21:05;;;;;;;25.57;14.53;;;;;;;11.23;100.00;100917.59;1448344;89;21455;-89
2022/11/02 05:23:31;;;;;;;22.70;14.10;;;;;;;11.25;100.00;100912.17;1452907;89;21638;-87
2022/11/02 05:26:02;;;;;;;23.10;13.77;;;;;;;11.24;100.00;100917.94;1441752;89;21536;-90
2022/11/02 05:28:30;;;;;;;26.00;15.63;;;;;;;11.22;100.00;100915.94;1426185;89;21564;-92
2022/11/02 05:30:59;;;;;;;26.27;13.83;;;;;;;11.16;100.00;100921.77;1459053;89;22386;-89
2022/11/02 05:33:28;;;;;;;24.63;14.07;;;;;;;11.12;100.00;100929.66;1539301;89;21219;-89
2022/11/02 05:35:56;;;;;;;26.37;15.53;;;;;;;11.13;100.00;100924.69;1400998;90;21306;-89
2022/11/02 05:38:24;;;;;;;24.50;14.23;;;;;;;11.13;100.00;100919.39;1366373;90;21388;-90
2022/11/02 05:40:56;;;;;;;31.87;14.43;;;;;;;11.14;100.00;100923.73;1375940;90;21255;-86
2022/11/02 05:43:23;;;;;;;23.83;15.50;;;;;;;11.18;100.00;100925.61;1376597;90;22254;-90
2022/11/02 05:45:54;;;;;;;27.47;15.47;;;;;;;11.21;100.00;100924.84;1473239;88;21358;-93
2022/11/02 05:48:32;;;;;;;31.73;15.30;;;;;;;11.22;100.00;100927.86;1452302;88;22862;-89
2022/11/02 05:51:01;;;;;;;30.10;15.20;;;;;;;11.25;100.00;100927.58;1501093;89;22459;-89
2022/11/02 05:53:32;;;;;;;32.90;14.80;;;;;;;11.27;100.00;100919.47;1451009;88;21388;-90
2022/11/02 05:56:01;;;;;;;26.83;15.17;;;;;;;11.26;100.00;100927.91;1438154;90;21410;-92
2022/11/02 05:58:28;;;;;;;25.27;14.50;;;;;;;11.27;100.00;100934.88;1450277;89;21469;-86
2022/11/02 06:00:54;;;;;;;30.80;14.67;;;;;;;11.30;100.00;100932.44;1376583;89;21226;-88
2022/11/02 06:03:20;;;;;;;30.40;16.13;;;;;;;11.32;100.00;100932.31;1380522;89;21315;-92
2022/11/02 06:05:46;;;;;;;27.80;14.00;;;;;;;11.37;100.00;100936.71;1377477;89;21263;-86
2022/11/02 06:08:12;;;;;;;26.30;16.50;;;;;;;11.42;100.00;100949.03;1375263;90;22254;-90
2022/11/02 06:10:41;;;;;;;25.83;15.00;;;;;;;11.41;100.00;100952.17;1444559;88;21455;-91
2022/11/02 06:13:06;;;;;;;28.70;17.77;;;;;;;11.42;100.00;100958.30;1461325;89;21671;-88
2022/11/02 06:15:32;;;;;;;33.20;18.40;;;;;;;11.41;100.00;100975.20;1459114;89;21402;-88
2022/11/02 06:17:58;;;;;;;26.30;15.40;;;;;;;11.38;100.00;100983.42;1441549;89;22201;-92
2022/11/02 06:20:25;;;;;;;24.60;14.27;;;;;;;11.40;100.00;100992.08;1445241;89;21351;-85
2022/11/02 06:22:51;;;;;;;26.57;14.80;;;;;;;11.42;100.00;100982.16;1446049;89;21578;-91
2022/11/02 06:25:18;;;;;;;23.77;14.83;;;;;;;11.44;100.00;100984.19;1456856;89;21365;-89
2022/11/02 06:27:54;;;;;;;29.73;16.97;;;;;;;11.45;100.00;100992.48;1460491;89;22427;-86
2022/11/02 06:30:24;;;;;;;32.27;16.30;;;;;;;11.44;100.00;100989.00;1456480;89;21380;-87
2022/11/02 06:32:53;;;;;;;30.97;17.37;;;;;;;11.45;100.00;100998.64;1458965;89;21667;-87
2022/11/02 06:35:21;;;;;;;32.13;18.30;;;;;;;11.45;100.00;101005.73;1458649;89;22297;-90
2022/11/02 06:37:48;;;;;;;32.93;17.53;;;;;;;11.45;100.00;101005.73;1459329;89;22355;-89
2022/11/02 06:40:14;;;;;;;29.20;17.77;;;;;;;11.47;100.00;101013.06;1454299;89;21380;-88
2022/11/02 06:42:40;;;;;;;27.67;16.87;;;;;;;11.48;100.00;101020.89;1456271;89;21509;-88
2022/11/02 06:45:08;;;;;;;32.43;16.07;;;;;;;11.49;100.00;101019.08;1461164;89;22333;-86
2022/11/02 06:47:37;;;;;;;34.37;17.50;;;;;;;11.51;100.00;101021.11;1455816;89;21469;-86
2022/11/02 06:50:05;;;;;;;31.20;17.07;;;;;;;11.52;100.00;101025.42;1440744;89;21409;-90
2022/11/02 06:52:31;;;;;;;26.47;15.90;;;;;;;11.56;100.00;101033.92;1456273;89;21385;-91
2022/11/02 06:54:57;;;;;;;37.43;18.10;;;;;;;11.60;100.00;101036.17;1459863;89;21772;-88
2022/11/02 06:57:23;;;;;;;52.67;17.13;;;;;;;11.62;100.00;101034.69;1453064;89;22051;-87
2022/11/02 06:59:50;;;;;;;32.03;15.00;;;;;;;11.68;100.00;101044.27;1456091;89;21532;-92
2022/11/02 07:02:16;;;;;;;33.87;16.80;;;;;;;11.72;100.00;101050.13;1459816;89;21391;-88
2022/11/02 16:25:58;;;;;;;119.07;60.47;;;;;;;11.27;89.80;100983.06;1506489;85;28443;-83
2022/11/02 16:28:31;;;;;;;101.93;49.07;;;;;;;11.18;90.11;100999.30;1488303;86;22478;-86
2022/11/02 16:31:08;;;;;;;85.90;50.60;;;;;;;11.17;90.24;100994.16;1484211;86;21404;-84
2022/11/02 16:33:47;;;;;;;92.53;51.40;;;;;;;11.17;91.23;100995.48;1489489;86;21546;-82
2022/11/02 16:36:30;;;;;;;86.77;52.67;;;;;;;11.20;91.61;100996.53;1485220;86;22276;-86
2022/11/02 16:39:24;;;;;;;82.77;49.03;;;;;;;11.24;92.17;101001.40;1491509;86;22594;-84
2022/11/02 16:41:57;;;;;;;82.70;51.67;;;;;;;11.29;92.32;100997.85;1466797;88;21404;-83
2022/11/02 16:44:32;;;;;;;92.57;55.15;;;;;;;11.37;92.26;100998.98;1478737;87;23309;-82
2022/11/02 16:47:09;;;;;;;105.27;57.37;;;;;;;11.41;92.27;100997.23;1489566;86;21366;-82
2022/11/02 16:49:56;;;;;;;96.03;55.70;;;;;;;11.47;92.65;100994.02;1478125;87;21491;-82
2022/11/02 16:52:35;;;;;;;98.60;60.07;;;;;;;11.53;92.50;101000.58;1484546;86;21648;-84
2022/11/02 16:55:03;;;;;;;100.60;55.60;;;;;;;11.58;92.23;101001.00;1478308;87;21588;-81
2022/11/02 16:57:34;;;;;;;85.83;49.60;;;;;;;11.59;91.98;101002.66;1477212;87;21611;-82
2022/11/02 17:00:10;;;;;;;78.77;47.87;;;;;;;11.59;91.87;101007.97;1475351;87;21639;-85
2022/11/02 17:02:40;;;;;;;69.77;42.00;;;;;;;11.58;91.80;101003.65;1520867;84;21624;-83
2022/11/02 17:05:16;;;;;;;57.93;35.73;;;;;;;11.57;92.07;100998.51;1517203;84;21730;-83
2022/11/02 17:07:48;;;;;;;43.93;27.40;;;;;;;11.56;92.40;101000.30;1518543;84;21353;-84
2022/11/02 17:10:26;;;;;;;44.43;28.13;;;;;;;11.57;92.87;101004.64;1522124;84;21434;-84
2022/11/02 17:12:54;;;;;;;50.77;29.10;;;;;;;11.59;93.00;101002.66;1520083;84;21425;-83
2022/11/02 17:15:27;;;;;;;64.73;37.27;;;;;;;11.61;92.90;101002.05;1512849;84;21462;-82
2022/11/02 17:18:28;;;;;;;74.03;44.17;;;;;;;11.62;92.70;101007.69;1530690;84;22414;-84
2022/11/02 17:21:42;;;;;;;75.03;43.57;;;;;;;11.61;92.43;101002.05;1515771;84;21425;-82
2022/11/02 17:24:31;;;;;;;77.70;45.70;;;;;;;11.58;92.15;101003.65;1502985;83;21676;-85
2022/11/02 17:27:24;;;;;;;76.37;47.50;;;;;;;11.50;92.12;101000.86;1519967;84;21418;-84
2022/11/02 17:29:55;;;;;;;84.80;49.17;;;;;;;11.46;92.25;101006.10;1517502;83;22415;-84
2022/11/02 17:32:21;;;;;;;65.67;42.60;;;;;;;11.38;92.37;101008.11;1519950;84;22003;-85
2022/11/02 17:34:57;;;;;;;62.53;38.23;;;;;;;11.35;92.86;101008.88;1510516;84;21691;-89
2022/11/02 17:37:29;;;;;;;57.57;38.23;;;;;;;11.33;93.21;101014.80;1496720;84;22409;-90
2022/11/02 17:39:58;;;;;;;69.97;44.17;;;;;;;11.32;93.32;101010.48;1523536;84;22496;-91
2022/11/02 17:45:30;;;;;;;106.90;61.33;;;;;;;11.32;93.60;101008.66;1516272;84;21462;-84
2022/11/02 17:47:58;;;;;;;100.03;59.70;;;;;;;11.29;93.48;101014.25;1528217;84;21622;-87
2022/11/02 17:50:28;;;;;;;87.57;52.47;;;;;;;11.24;93.44;101010.67;1520657;84;21360;-88
2022/11/02 17:52:57;;;;;;;67.40;40.67;;;;;;;11.22;93.75;101011.31;1522828;84;21440;-87
2022/11/02 17:55:27;;;;;;;77.90;37.47;;;;;;;11.16;94.17;101001.24;1504689;84;21521;-83
2022/11/02 17:57:54;;;;;;;52.73;33.80;;;;;;;11.14;94.30;101007.19;1516742;84;21366;-93
2022/11/02 18:00:22;;;;;;;50.97;32.50;;;;;;;11.11;95.42;101007.95;1512270;84;21587;-87
2022/11/02 18:02:55;;;;;;;57.07;31.23;;;;;;;11.09;95.04;101002.78;1515985;84;21583;-85
2022/11/02 18:05:31;;;;;;;44.80;29.37;;;;;;;11.11;94.93;101002.66;1514587;84;21544;-86
2022/11/02 18:07:58;;;;;;;51.90;31.53;;;;;;;11.08;94.91;100994.50;1515733;84;21418;-94
2022/11/02 18:10:32;;;;;;;56.47;30.47;;;;;;;11.06;95.11;100992.45;1525103;84;21317;-95
2022/11/02 18:12:58;;;;;;;52.57;28.93;;;;;;;11.05;95.06;100993.45;1510457;84;21395;-94
2022/11/02 18:15:28;;;;;;;45.00;29.00;;;;;;;11.04;94.96;100996.55;1495857;84;21424;-85
2022/11/02 18:17:55;;;;;;;58.63;33.08;;;;;;;11.02;94.89;101001.67;1523939;84;22356;-94
2022/11/02 18:20:23;;;;;;;55.33;35.17;;;;;;;10.98;94.71;101003.73;1517601;84;21447;-91
2022/11/02 18:22:49;;;;;;;50.23;34.57;;;;;;;10.95;94.74;101005.81;1511097;83;21410;-92
2022/11/02 18:25:17;;;;;;;51.13;30.43;;;;;;;10.91;94.92;101005.26;1519225;84;21425;-94
2022/11/02 18:27:45;;;;;;;56.57;29.77;;;;;;;10.87;95.34;101006.98;1521932;84;22702;-88
2022/11/02 18:30:14;;;;;;;58.03;29.90;;;;;;;10.83;95.13;101005.92;1531977;84;21686;-92
2022/11/02 18:32:43;;;;;;;44.70;27.73;;;;;;;10.78;95.79;101005.48;1519855;84;21484;-90
2022/11/02 18:35:13;;;;;;;53.57;28.67;;;;;;;10.74;96.03;101014.68;1525967;84;21506;-92
2022/11/02 18:37:40;;;;;;;51.92;28.92;;;;;;;10.71;96.13;101010.98;1516287;84;21419;-89
2022/11/02 18:40:10;;;;;;;53.73;34.20;;;;;;;10.68;96.14;101015.22;1522652;84;21351;-91
2022/11/02 18:42:39;;;;;;;59.23;38.53;;;;;;;10.64;96.09;101011.64;1525391;84;21373;-90
2022/11/02 18:45:07;;;;;;;56.47;38.27;;;;;;;10.64;96.06;101015.12;1526408;84;21417;-94
2022/11/02 18:47:33;;;;;;;63.27;39.33;;;;;;;10.61;96.08;101015.39;1525487;84;21409;-89
2022/11/02 18:50:00;;;;;;;56.20;36.30;;;;;;;10.57;96.08;101021.94;1526318;84;21500;-91
2022/11/02 18:52:28;;;;;;;53.83;33.50;;;;;;;10.52;96.01;101020.16;1512072;84;21411;-92
2022/11/02 18:54:55;;;;;;;52.07;30.40;;;;;;;10.49;96.06;101015.14;1526378;83;22069;-90
2022/11/02 18:57:22;;;;;;;60.70;34.43;;;;;;;10.48;96.35;101013.47;1521622;84;21425;-93
2022/11/02 18:59:48;;;;;;;113.87;64.53;;;;;;;10.47;96.35;101012.64;1516930;84;21419;-88
2022/11/02 19:02:14;;;;;;;104.83;56.37;;;;;;;10.46;96.39;101008.79;1517646;84;22725;-89
2022/11/02 19:04:41;;;;;;;64.40;35.83;;;;;;;10.45;96.40;101011.09;1520274;84;21477;-91
2022/11/02 19:09:53;;;;;;;55.77;31.97;;;;;;;10.42;96.56;101016.66;1528136;84;21546;-90
2022/11/02 19:12:26;;;;;;;62.40;32.13;;;;;;;10.38;96.60;101016.05;1510354;84;21521;-89
2022/11/02 19:14:53;;;;;;;67.10;38.57;;;;;;;10.36;96.87;101014.88;1521952;84;21513;-88
2022/11/02 19:17:23;;;;;;;69.63;37.70;;;;;;;10.35;97.24;101010.53;1512758;84;21411;-95
2022/11/02 19:19:49;;;;;;;61.28;36.68;;;;;;;10.36;97.34;101008.75;1525468;84;21493;-89
2022/11/02 19:22:19;;;;;;;68.43;36.70;;;;;;;10.36;97.53;101015.38;1515793;83;22233;-94
2022/11/02 19:24:46;;;;;;;55.90;33.23;;;;;;;10.36;97.48;101018.02;1519735;84;21508;-91
2022/11/02 19:27:19;;;;;;;62.23;33.20;;;;;;;10.36;97.48;101014.05;1521728;84;22171;-89
2022/11/02 19:29:46;;;;;;;102.60;45.33;;;;;;;10.34;97.37;101019.45;1520015;84;21440;-93
2022/11/02 19:32:13;;;;;;;85.20;40.97;;;;;;;10.29;97.33;101017.69;1534771;84;22484;-93
2022/11/02 19:34:39;;;;;;;61.53;33.87;;;;;;;10.22;97.63;101017.84;1533706;84;21440;-88
2022/11/02 19:37:07;;;;;;;50.83;29.97;;;;;;;10.19;98.96;101012.81;1490595;85;21477;-88
2022/11/02 19:39:33;;;;;;;63.50;32.87;;;;;;;10.19;98.73;101014.13;1525991;84;21617;-91
2022/11/02 19:41:59;;;;;;;108.27;42.80;;;;;;;10.17;98.92;101016.06;1489796;84;22393;-93
2022/11/02 19:44:25;;;;;;;138.83;53.77;;;;;;;10.15;99.17;101020.63;1513578;84;21477;-92
2022/11/02 19:46:51;;;;;;;116.53;45.47;;;;;;;10.12;99.78;101019.08;1526569;84;21425;-93
2022/11/02 19:49:17;;;;;;;90.87;41.00;;;;;;;10.10;100.00;101020.21;1512046;84;21381;-94
2022/11/02 19:51:43;;;;;;;89.17;40.33;;;;;;;10.09;99.72;101022.48;1524619;84;21346;-94
2022/11/02 19:54:10;;;;;;;87.13;40.60;;;;;;;10.10;99.49;101021.53;1528264;84;21388;-86
2022/11/02 19:56:36;;;;;;;101.73;47.07;;;;;;;10.10;99.95;101021.53;1524635;84;21454;-92
2022/11/02 19:59:03;;;;;;;112.77;48.73;;;;;;;10.06;99.81;101027.55;1498302;85;21368;-93
2022/11/02 20:01:33;;;;;;;109.93;49.90;;;;;;;10.01;100.00;101024.47;1510969;84;21554;-93
2022/11/02 20:03:59;;;;;;;103.27;47.50;;;;;;;9.96;100.00;101025.34;1530878;84;22417;-92
2022/11/02 20:06:42;;;;;;;79.80;37.50;;;;;;;9.94;100.00;101024.13;1520406;84;21360;-93
2022/11/02 20:09:17;;;;;;;68.37;36.70;;;;;;;9.93;100.00;101022.46;1519967;84;21661;-93
2022/11/02 20:11:45;;;;;;;56.60;31.83;;;;;;;9.96;100.00;101028.47;1524100;84;21543;-86
2022/11/02 20:14:15;;;;;;;64.57;32.30;;;;;;;9.97;100.00;101032.78;1525492;84;22515;-90
2022/11/02 20:16:41;;;;;;;58.47;32.83;;;;;;;10.00;100.00;101024.59;1524506;84;21439;-85
2022/11/02 20:19:08;;;;;;;54.67;29.57;;;;;;;10.03;100.00;101034.41;1523887;84;21492;-91
2022/11/02 20:21:34;;;;;;;56.43;31.07;;;;;;;10.06;100.00;101034.64;1520569;84;21579;-92
2022/11/02 20:24:00;;;;;;;50.60;30.77;;;;;;;10.09;100.00;101036.53;1523174;84;22342;-91
2022/11/02 20:26:31;;;;;;;50.23;30.57;;;;;;;10.10;100.00;101031.62;1498432;84;21418;-88
2022/11/02 20:28:59;;;;;;;52.13;31.93;;;;;;;10.15;100.00;101037.83;1521598;84;22313;-94
2022/11/02 20:31:30;;;;;;;67.00;31.50;;;;;;;10.16;100.00;101039.03;1521112;84;22518;-92
2022/11/02 20:33:59;;;;;;;56.03;32.87;;;;;;;10.18;100.00;101033.59;1527246;84;21424;-91
2022/11/02 20:36:26;;;;;;;51.00;28.03;;;;;;;10.25;100.00;101047.16;1519187;84;22269;-92
2022/11/02 20:38:53;;;;;;;47.37;28.43;;;;;;;10.26;100.00;101036.44;1523109;84;21484;-91
2022/11/02 20:41:20;;;;;;;47.70;29.27;;;;;;;10.31;100.00;101050.14;1497778;84;21491;-89
2022/11/02 20:43:48;;;;;;;48.73;29.27;;;;;;;10.34;100.00;101055.17;1519476;84;21454;-93
2022/11/02 20:46:18;;;;;;;49.43;28.20;;;;;;;10.38;100.00;101055.75;1519554;84;21425;-93
2022/11/02 20:48:49;;;;;;;43.00;25.40;;;;;;;10.41;100.00;101058.13;1516367;84;21453;-94
2022/11/02 20:51:16;;;;;;;49.37;29.33;;;;;;;10.44;100.00;101052.57;1497044;84;21471;-90
2022/11/02 20:53:42;;;;;;;42.57;25.27;;;;;;;10.48;100.00;101056.65;1498966;84;21434;-93
2022/11/02 20:56:09;;;;;;;44.80;27.03;;;;;;;10.52;100.00;101055.41;1518892;84;22000;-91
2022/11/02 20:58:35;;;;;;;39.13;25.60;;;;;;;10.56;100.00;101054.19;1521182;84;22613;-90
2022/11/02 21:01:02;;;;;;;47.13;26.70;;;;;;;10.62;100.00;101052.82;1525678;84;21515;-91
2022/11/02 21:03:28;;;;;;;44.00;26.87;;;;;;;10.66;100.00;101063.48;1522945;84;22255;-93
2022/11/02 21:05:56;;;;;;;44.13;25.37;;;;;;;10.69;100.00;101059.73;1519110;84;21598;-93